createdAt,value
2023-12-21T00:00:29.982Z,33.06
2023-12-21T00:03:18.110Z,33.60
2023-12-21T00:06:07.417Z,33.29
2023-12-21T00:08:55.075Z,33.34
2023-12-21T00:11:43.343Z,34.17
2023-12-21T00:14:31.798Z,33.01
2023-12-21T00:17:18.693Z,33.65
2023-12-21T00:20:05.980Z,33.14
2023-12-21T00:22:52.842Z,32.65
2023-12-21T00:25:39.750Z,32.76
2023-12-21T00:28:27.876Z,33.52
2023-12-21T00:31:14.742Z,34.24
2023-12-21T00:34:01.641Z,33.36
2023-12-21T00:36:48.541Z,33.10
2023-12-21T00:39:35.390Z,32.82
2023-12-21T00:42:22.075Z,33.17
2023-12-21T00:45:10.892Z,32.95
2023-12-21T00:47:57.743Z,32.81
2023-12-21T00:50:44.549Z,32.99
2023-12-21T00:53:31.503Z,32.98
2023-12-21T00:56:18.446Z,34.92
2023-12-21T00:59:05.470Z,33.86
2023-12-21T01:01:53.822Z,33.30
2023-12-21T01:04:40.732Z,34.51
2023-12-21T01:07:27.657Z,33.37
2023-12-21T01:10:14.521Z,34.38
2023-12-21T01:13:01.439Z,33.61
2023-12-21T01:15:48.482Z,34.78
2023-12-21T01:18:36.785Z,33.74
2023-12-21T01:21:23.872Z,33.13
2023-12-21T01:24:10.434Z,33.60
2023-12-21T01:26:57.544Z,34.06
2023-12-21T01:29:44.290Z,35.22
2023-12-21T01:32:31.246Z,34.72
2023-12-21T01:35:19.646Z,35.00
2023-12-21T01:38:06.547Z,34.46
2023-12-21T01:40:53.491Z,35.46
2023-12-21T01:43:40.563Z,36.87
2023-12-21T01:46:27.802Z,39.46
2023-12-21T01:49:15.386Z,38.88
2023-12-21T01:52:04.050Z,37.48
2023-12-21T01:54:50.913Z,37.59
2023-12-21T01:57:38.121Z,38.97
2023-12-21T02:00:25.054Z,37.53
2023-12-21T02:03:11.877Z,38.92
2023-12-21T02:05:58.976Z,40.41
2023-12-21T02:08:47.055Z,40.92
2023-12-21T02:11:34.036Z,40.15
2023-12-21T02:14:21.185Z,40.16
2023-12-21T02:17:12.148Z,37.89
2023-12-21T02:19:59.942Z,39.87
2023-12-21T02:22:49.942Z,38.14
2023-12-21T02:25:38.457Z,37.25
2023-12-21T02:28:25.357Z,39.64
2023-12-21T02:31:12.233Z,42.59
2023-12-21T02:33:59.156Z,39.59
2023-12-21T02:36:46.023Z,37.04
2023-12-21T02:39:32.841Z,37.70
2023-12-21T02:42:20.950Z,39.52
2023-12-21T02:45:08.648Z,38.95
2023-12-21T02:47:55.643Z,40.39
2023-12-21T02:50:42.297Z,38.13
2023-12-21T02:53:29.259Z,41.94
2023-12-21T02:56:16.340Z,41.09
2023-12-21T02:59:04.481Z,40.99
2023-12-21T03:01:51.360Z,40.46
2023-12-21T03:04:38.414Z,41.19
2023-12-21T03:07:25.446Z,38.41
2023-12-21T03:10:12.241Z,38.75
2023-12-21T03:12:59.053Z,39.54
2023-12-21T03:15:47.346Z,39.10
2023-12-21T03:18:34.190Z,38.73
2023-12-21T03:21:21.238Z,38.51
2023-12-21T03:24:08.940Z,39.73
2023-12-21T03:26:55.827Z,40.14
2023-12-21T03:29:43.186Z,40.71
2023-12-21T03:32:31.698Z,38.36
2023-12-21T03:35:18.897Z,38.98
2023-12-21T03:38:05.733Z,41.82
2023-12-21T03:40:52.488Z,40.70
2023-12-21T03:43:39.358Z,39.70
2023-12-21T03:46:26.223Z,37.79
2023-12-21T03:49:14.342Z,38.20
2023-12-21T03:52:01.408Z,38.99
2023-12-21T03:54:48.781Z,40.95
2023-12-21T03:57:35.716Z,39.77
2023-12-21T04:00:22.891Z,39.76
2023-12-21T04:03:09.706Z,38.33
2023-12-21T04:05:57.950Z,38.85
2023-12-21T04:08:44.690Z,38.35
2023-12-21T04:11:31.753Z,37.14
2023-12-21T04:14:19.052Z,37.31
2023-12-21T04:17:06.351Z,36.94
2023-12-21T04:19:53.614Z,38.38
2023-12-21T04:22:41.606Z,40.47
2023-12-21T04:25:28.976Z,37.88
2023-12-21T04:28:15.868Z,37.33
2023-12-21T04:31:02.963Z,36.97
2023-12-21T04:33:52.112Z,38.48
2023-12-21T04:36:39.310Z,38.00
2023-12-21T04:39:27.855Z,38.60
2023-12-21T04:42:14.765Z,36.89
2023-12-21T04:45:01.516Z,37.39
2023-12-21T04:47:48.292Z,39.16
2023-12-21T04:50:35.487Z,39.29
2023-12-21T04:53:22.316Z,38.85
2023-12-21T04:56:10.842Z,39.77
2023-12-21T04:58:57.767Z,37.41
2023-12-21T05:01:44.694Z,40.54
2023-12-21T05:04:31.487Z,37.65
2023-12-21T05:07:19.456Z,40.16
2023-12-21T05:10:07.107Z,38.90
2023-12-21T05:12:55.561Z,39.40
2023-12-21T05:15:42.422Z,39.43
2023-12-21T05:18:29.429Z,39.93
2023-12-21T05:21:16.280Z,39.02
2023-12-21T05:24:03.115Z,39.83
2023-12-21T05:26:50.432Z,38.91
2023-12-21T05:29:38.661Z,38.25
2023-12-21T05:32:25.849Z,39.51
2023-12-21T05:35:13.279Z,39.01
2023-12-21T05:38:00.681Z,39.19
2023-12-21T05:40:47.471Z,38.64
2023-12-21T05:43:33.981Z,38.83
2023-12-21T05:46:22.147Z,40.36
2023-12-21T05:49:09.176Z,38.86
2023-12-21T05:52:02.960Z,40.79
2023-12-21T05:54:51.160Z,39.53
2023-12-21T05:57:38.035Z,38.27
2023-12-21T06:00:25.426Z,40.50
2023-12-21T06:03:18.341Z,41.50
2023-12-21T06:06:06.828Z,39.04
2023-12-21T06:08:53.351Z,38.17
2023-12-21T06:11:40.091Z,39.25
2023-12-21T06:14:26.989Z,39.77
2023-12-21T06:17:16.244Z,38.03
2023-12-21T06:20:04.795Z,39.01
2023-12-21T06:22:51.883Z,38.19
2023-12-21T06:25:38.917Z,38.56
2023-12-21T06:28:25.683Z,37.80
2023-12-21T06:31:17.979Z,40.62
2023-12-21T06:34:04.922Z,40.21
2023-12-21T06:36:53.045Z,39.05
2023-12-21T06:39:39.987Z,39.89
2023-12-21T06:42:26.766Z,39.85
2023-12-21T06:45:13.689Z,41.27
2023-12-21T06:48:01.104Z,41.12
2023-12-21T06:50:47.822Z,40.07
2023-12-21T06:53:36.181Z,41.37
2023-12-21T06:56:33.008Z,39.30
2023-12-21T06:59:21.672Z,41.82
2023-12-21T07:02:10.033Z,40.44
2023-12-21T07:04:56.733Z,40.68
2023-12-21T07:07:43.533Z,39.96
2023-12-21T07:10:31.724Z,40.40
2023-12-21T07:13:18.768Z,41.19
2023-12-21T07:16:05.995Z,41.90
2023-12-21T07:18:52.910Z,40.41
2023-12-21T07:21:39.748Z,39.66
2023-12-21T07:24:26.602Z,40.44
2023-12-21T07:27:16.477Z,39.26
2023-12-21T07:30:03.274Z,41.22
2023-12-21T07:32:50.351Z,41.38
2023-12-21T07:35:37.293Z,41.15
2023-12-21T07:38:24.246Z,41.42
2023-12-21T07:41:11.751Z,40.42
2023-12-21T07:44:00.762Z,42.01
2023-12-21T07:46:47.520Z,41.70
2023-12-21T07:49:34.869Z,38.13
2023-12-21T07:52:21.613Z,40.01
2023-12-21T07:55:09.654Z,39.50
2023-12-21T07:57:56.118Z,40.69
2023-12-21T08:00:44.450Z,39.40
2023-12-21T08:03:31.365Z,40.68
2023-12-21T08:06:22.690Z,44.02
2023-12-21T08:09:09.708Z,42.45
2023-12-21T08:11:56.874Z,41.11
2023-12-21T08:14:43.824Z,41.36
2023-12-21T08:17:32.526Z,41.48
2023-12-21T08:20:19.560Z,42.48
2023-12-21T08:23:06.707Z,40.73
2023-12-21T08:25:53.752Z,41.03
2023-12-21T08:28:40.890Z,42.38
2023-12-21T08:31:28.588Z,40.63
2023-12-21T08:34:16.753Z,39.27
2023-12-21T08:37:03.544Z,40.88
2023-12-21T08:39:50.366Z,40.31
2023-12-21T08:42:37.360Z,41.44
2023-12-21T08:45:24.222Z,39.99
2023-12-21T08:48:11.294Z,41.24
2023-12-21T08:50:59.611Z,42.79
2023-12-21T08:53:46.730Z,41.12
2023-12-21T08:56:34.369Z,40.23
2023-12-21T08:59:21.776Z,40.95
2023-12-21T09:02:08.684Z,41.77
2023-12-21T09:04:55.434Z,40.49
2023-12-21T09:07:43.687Z,40.18
2023-12-21T09:10:30.563Z,40.35
2023-12-21T09:13:17.275Z,43.32
2023-12-21T09:16:04.038Z,42.95
2023-12-21T09:18:53.362Z,41.60
2023-12-21T09:21:42.103Z,41.82
2023-12-21T09:24:30.319Z,42.28
2023-12-21T09:27:17.241Z,43.37
2023-12-21T09:30:06.725Z,42.31
2023-12-21T09:32:54.199Z,41.09
2023-12-21T09:35:41.130Z,42.64
2023-12-21T09:38:27.947Z,42.46
2023-12-21T09:41:16.660Z,41.27
2023-12-21T09:44:04.537Z,42.20
2023-12-21T09:46:51.417Z,41.47
2023-12-21T09:49:38.795Z,43.06
2023-12-21T09:52:27.278Z,44.09
2023-12-21T09:55:15.433Z,43.46
2023-12-21T09:58:05.338Z,42.81
2023-12-21T10:00:52.111Z,41.91
2023-12-21T10:03:39.268Z,43.76
2023-12-21T10:06:28.002Z,45.06
2023-12-21T10:09:17.109Z,47.33
2023-12-21T10:12:04.517Z,42.23
2023-12-21T10:15:05.312Z,46.19
2023-12-21T10:17:53.204Z,45.21
2023-12-21T10:20:41.564Z,46.27
2023-12-21T10:23:28.312Z,43.04
2023-12-21T10:26:15.340Z,44.71
2023-12-21T10:29:02.972Z,45.44
2023-12-21T10:31:51.236Z,43.80
2023-12-21T10:34:38.303Z,43.66
2023-12-21T10:37:25.830Z,42.97
2023-12-21T10:40:15.237Z,44.04
2023-12-21T10:43:02.189Z,45.30
2023-12-21T10:45:50.151Z,43.93
2023-12-21T10:48:39.577Z,41.57
2023-12-21T10:51:26.996Z,43.50
2023-12-21T10:54:14.196Z,40.90
2023-12-21T10:57:01.731Z,40.44
2023-12-21T10:59:49.656Z,43.86
2023-12-21T11:02:37.352Z,42.88
2023-12-21T11:05:28.073Z,42.52
2023-12-21T11:08:14.733Z,41.90
2023-12-21T11:11:02.116Z,42.87
2023-12-21T11:13:51.315Z,42.50
2023-12-21T11:16:42.664Z,44.56
2023-12-21T11:19:32.762Z,46.25
2023-12-21T11:22:20.976Z,43.07
2023-12-21T11:25:13.324Z,44.47
2023-12-21T11:28:01.238Z,43.22
2023-12-21T11:30:48.280Z,42.55
2023-12-21T11:33:35.236Z,42.39
2023-12-21T11:36:26.991Z,44.33
2023-12-21T11:39:19.023Z,42.84
2023-12-21T11:42:07.521Z,43.22
2023-12-21T11:44:55.395Z,43.83
2023-12-21T11:47:46.501Z,42.94
2023-12-21T11:50:35.489Z,42.08
2023-12-21T11:53:36.272Z,42.94
2023-12-21T11:56:36.954Z,41.22
2023-12-21T11:59:25.178Z,42.55
2023-12-21T12:02:14.662Z,42.09
2023-12-21T12:05:01.689Z,42.71
2023-12-21T12:07:50.842Z,41.34
2023-12-21T12:10:37.469Z,43.23
2023-12-21T12:13:26.004Z,43.43
2023-12-21T12:16:17.130Z,41.20
2023-12-21T12:19:03.847Z,41.96
2023-12-21T12:21:50.576Z,41.77
2023-12-21T12:24:37.456Z,42.25
2023-12-21T12:27:24.384Z,42.13
2023-12-21T12:30:15.015Z,44.37
2023-12-21T12:33:05.128Z,43.53
2023-12-21T12:35:52.023Z,44.46
2023-12-21T12:38:38.538Z,43.06
2023-12-21T12:41:26.693Z,43.09
2023-12-21T12:44:13.423Z,43.22
2023-12-21T12:47:01.964Z,41.12
2023-12-21T12:49:48.853Z,43.25
2023-12-21T12:52:41.072Z,41.14
2023-12-21T12:55:27.711Z,44.27
2023-12-21T12:58:15.473Z,42.34
2023-12-21T13:01:03.926Z,40.75
2023-12-21T13:03:52.222Z,40.90
2023-12-21T13:06:39.007Z,43.80
2023-12-21T13:09:26.057Z,41.54
2023-12-21T13:12:12.705Z,41.13
2023-12-21T13:14:59.640Z,42.36
2023-12-21T13:17:46.899Z,42.11
2023-12-21T13:20:36.378Z,45.02
2023-12-21T13:23:23.271Z,42.91
2023-12-21T13:26:10.794Z,43.29
2023-12-21T13:28:59.694Z,42.73
2023-12-21T13:31:46.877Z,40.22
2023-12-21T13:34:33.751Z,42.16
2023-12-21T13:37:21.808Z,42.34
2023-12-21T13:40:11.315Z,40.89
2023-12-21T13:42:58.107Z,41.04
2023-12-21T13:45:45.332Z,41.71
2023-12-21T13:48:32.142Z,40.46
2023-12-21T13:51:18.900Z,41.97
2023-12-21T13:54:07.314Z,40.56
2023-12-21T13:57:03.721Z,42.40
2023-12-21T13:59:57.620Z,43.44
2023-12-21T14:02:44.470Z,42.13
2023-12-21T14:05:31.374Z,43.84
2023-12-21T14:08:19.133Z,42.14
2023-12-21T14:11:07.396Z,45.48
2023-12-21T14:13:54.143Z,43.02
2023-12-21T14:16:40.966Z,44.45
2023-12-21T14:19:27.753Z,42.60
2023-12-21T14:22:14.884Z,42.40
2023-12-21T14:25:02.383Z,42.70
2023-12-21T14:27:51.184Z,41.03
2023-12-21T14:30:37.727Z,43.43
2023-12-21T14:33:25.444Z,41.71
2023-12-21T14:36:12.520Z,43.58
2023-12-21T14:38:59.349Z,41.90
2023-12-21T14:41:47.970Z,41.79
2023-12-21T14:44:38.492Z,43.32
2023-12-21T14:47:26.558Z,41.89
2023-12-21T14:50:13.361Z,41.46
2023-12-21T14:53:00.079Z,42.35
2023-12-21T14:55:48.712Z,40.35
2023-12-21T14:58:35.620Z,41.13
2023-12-21T15:01:25.704Z,40.16
2023-12-21T15:04:13.491Z,39.86
2023-12-21T15:07:01.165Z,39.32
2023-12-21T15:09:47.757Z,39.00
2023-12-21T15:12:36.581Z,39.38
2023-12-21T15:15:23.407Z,40.23
2023-12-21T15:18:11.839Z,42.50
2023-12-21T15:20:58.684Z,41.99
2023-12-21T15:23:45.632Z,40.63
2023-12-21T15:26:32.282Z,42.29
2023-12-21T15:29:19.269Z,41.47
2023-12-21T15:32:06.519Z,42.11
2023-12-21T15:34:55.032Z,40.34
2023-12-21T15:37:41.681Z,38.99
2023-12-21T15:40:28.625Z,38.98
2023-12-21T15:43:15.554Z,37.69
2023-12-21T15:46:02.692Z,39.12
2023-12-21T15:48:49.744Z,38.47
2023-12-21T15:51:37.940Z,38.57
2023-12-21T15:54:24.806Z,37.33
2023-12-21T15:57:14.264Z,37.98
2023-12-21T16:00:03.967Z,38.40
2023-12-21T16:02:51.259Z,37.40
2023-12-21T16:05:37.876Z,37.74
2023-12-21T16:08:26.289Z,38.62
2023-12-21T16:11:13.216Z,38.46
2023-12-21T16:14:00.259Z,36.73
2023-12-21T16:16:47.374Z,37.43
2023-12-21T16:19:34.821Z,37.91
2023-12-21T16:22:21.547Z,36.96
2023-12-21T16:25:11.232Z,37.95
2023-12-21T16:27:57.908Z,38.33
2023-12-21T16:30:44.685Z,38.07
2023-12-21T16:33:31.804Z,36.27
2023-12-21T16:36:19.604Z,36.83
2023-12-21T16:39:08.206Z,37.33
2023-12-21T16:41:56.801Z,37.89
2023-12-21T16:44:43.658Z,37.99
2023-12-21T16:47:30.744Z,38.14
2023-12-21T16:50:17.783Z,38.54
2023-12-21T16:53:04.658Z,37.64
2023-12-21T16:55:51.338Z,37.44
2023-12-21T16:58:39.637Z,36.91
2023-12-21T17:01:26.596Z,36.60
2023-12-21T17:04:13.477Z,37.65
2023-12-21T17:07:00.624Z,38.36
2023-12-21T17:09:47.111Z,36.26
2023-12-21T17:12:34.008Z,35.38
2023-12-21T17:15:22.293Z,36.63
2023-12-21T17:18:09.809Z,36.82
2023-12-21T17:20:56.580Z,35.81
2023-12-21T17:23:43.439Z,36.34
2023-12-21T17:26:30.689Z,36.01
2023-12-21T17:29:17.615Z,37.43
2023-12-21T17:32:06.457Z,35.68
2023-12-21T17:34:53.413Z,35.66
2023-12-21T17:37:40.327Z,35.86
2023-12-21T17:40:27.075Z,36.22
2023-12-21T17:43:14.151Z,35.51
2023-12-21T17:46:02.536Z,34.04
2023-12-21T17:48:51.775Z,34.36
2023-12-21T17:51:41.359Z,34.73
2023-12-21T17:54:28.733Z,34.54
2023-12-21T17:57:17.975Z,35.31
2023-12-21T18:00:06.039Z,35.51
2023-12-21T18:02:53.571Z,35.46
2023-12-21T18:05:41.787Z,36.08
2023-12-21T18:08:28.771Z,34.90
2023-12-21T18:11:16.285Z,36.25
2023-12-21T18:14:02.914Z,36.10
2023-12-21T18:16:50.300Z,37.96
2023-12-21T18:19:37.097Z,36.60
2023-12-21T18:22:25.297Z,36.35
2023-12-21T18:25:12.465Z,34.95
2023-12-21T18:27:59.237Z,35.41
2023-12-21T18:30:49.396Z,34.69
2023-12-21T18:33:35.928Z,33.92
2023-12-21T18:36:23.454Z,36.02
2023-12-21T18:39:12.387Z,35.74
2023-12-21T18:41:59.181Z,35.78
2023-12-21T18:44:46.775Z,36.51
2023-12-21T18:47:33.609Z,34.98
2023-12-21T18:50:20.528Z,35.40
2023-12-21T18:53:07.270Z,35.73
2023-12-21T18:55:55.743Z,36.00
2023-12-21T18:58:42.717Z,34.89
2023-12-21T19:01:29.602Z,34.10
2023-12-21T19:04:17.386Z,33.75
2023-12-21T19:07:03.994Z,35.24
2023-12-21T19:09:52.014Z,33.63
2023-12-21T19:12:44.083Z,33.84
2023-12-21T19:15:32.105Z,34.48
2023-12-21T19:18:18.866Z,34.57
2023-12-21T19:21:09.186Z,34.47
2023-12-21T19:23:56.173Z,34.95
2023-12-21T19:26:42.862Z,35.00
2023-12-21T19:29:31.050Z,34.37
2023-12-21T19:32:18.168Z,35.72
2023-12-21T19:35:05.765Z,35.59
2023-12-21T19:37:52.665Z,34.62
2023-12-21T19:40:39.699Z,36.16
2023-12-21T19:43:26.435Z,35.92
2023-12-21T19:46:14.983Z,35.67
2023-12-21T19:49:01.713Z,35.82
2023-12-21T19:51:48.592Z,34.90
2023-12-21T19:54:36.051Z,34.72
2023-12-21T19:57:24.129Z,35.52
2023-12-21T20:00:11.771Z,35.19
2023-12-21T20:03:01.895Z,34.89
2023-12-21T20:05:48.593Z,36.00
2023-12-21T20:08:35.580Z,34.99
2023-12-21T20:11:22.523Z,35.75
2023-12-21T20:14:09.345Z,34.39
2023-12-21T20:16:56.307Z,34.57
2023-12-21T20:19:45.058Z,35.95
2023-12-21T20:22:31.726Z,35.52
2023-12-21T20:25:18.548Z,35.63
2023-12-21T20:28:08.861Z,35.19
2023-12-21T20:30:55.734Z,34.39
2023-12-21T20:33:42.607Z,33.75
2023-12-21T20:36:30.760Z,35.11
2023-12-21T20:39:17.764Z,35.68
2023-12-21T20:42:05.368Z,34.48
2023-12-21T20:44:52.080Z,33.33
2023-12-21T20:47:38.989Z,33.76
2023-12-21T20:50:26.014Z,33.77
2023-12-21T20:53:13.907Z,34.23
2023-12-21T20:56:01.176Z,33.71
2023-12-21T20:58:49.286Z,32.71
2023-12-21T21:01:36.869Z,34.39
2023-12-21T21:04:23.994Z,34.20
2023-12-21T21:07:11.273Z,34.99
2023-12-21T21:09:59.505Z,34.35
2023-12-21T21:12:49.427Z,35.77
2023-12-21T21:15:49.946Z,33.90
2023-12-21T21:18:38.235Z,36.34
2023-12-21T21:21:25.217Z,34.47
2023-12-21T21:24:12.212Z,34.40
2023-12-21T21:27:01.998Z,35.30
2023-12-21T21:29:48.761Z,33.29
2023-12-21T21:32:36.123Z,33.12
2023-12-21T21:35:22.644Z,34.01
2023-12-21T21:38:09.514Z,33.94
2023-12-21T21:41:01.573Z,34.58
2023-12-21T21:43:50.496Z,35.08
2023-12-21T21:46:42.653Z,34.68
2023-12-21T21:49:32.848Z,34.28
2023-12-21T21:52:19.450Z,34.10
2023-12-21T21:55:10.223Z,32.59
2023-12-21T21:57:57.657Z,33.50
2023-12-21T22:00:45.696Z,34.49
2023-12-21T22:03:32.687Z,33.39
2023-12-21T22:06:19.541Z,34.10
2023-12-21T22:09:07.583Z,34.13
2023-12-21T22:11:54.176Z,34.04
2023-12-21T22:14:40.937Z,34.34
2023-12-21T22:17:29.388Z,33.20
2023-12-21T22:20:16.456Z,34.52
2023-12-21T22:23:04.441Z,34.96
2023-12-21T22:25:51.043Z,36.43
2023-12-21T22:28:37.880Z,38.61
2023-12-21T22:31:25.483Z,35.46
2023-12-21T22:34:13.263Z,35.42
2023-12-21T22:37:00.198Z,34.97
2023-12-21T22:39:47.130Z,37.68
2023-12-21T22:42:34.107Z,35.78
2023-12-21T22:45:21.453Z,35.21
2023-12-21T22:48:09.650Z,34.48
2023-12-21T22:50:58.007Z,35.04
2023-12-21T22:53:45.224Z,34.96
2023-12-21T22:56:32.027Z,34.86
2023-12-21T22:59:19.221Z,35.14
2023-12-21T23:02:05.931Z,35.32
2023-12-21T23:04:54.565Z,36.03
2023-12-21T23:07:43.137Z,36.15
2023-12-21T23:10:29.962Z,34.76
2023-12-21T23:13:19.249Z,36.38
2023-12-21T23:16:07.155Z,35.92
2023-12-21T23:18:54.155Z,36.21
2023-12-21T23:21:40.853Z,36.08
2023-12-21T23:24:29.070Z,34.53
2023-12-21T23:27:16.068Z,34.60
2023-12-21T23:30:02.889Z,34.73
2023-12-21T23:32:50.202Z,34.19
2023-12-21T23:35:37.209Z,34.99
2023-12-21T23:38:24.088Z,34.46
2023-12-21T23:41:13.046Z,33.85
2023-12-21T23:43:59.878Z,34.99
2023-12-21T23:46:46.644Z,34.19
2023-12-21T23:49:33.689Z,33.93
2023-12-21T23:52:20.486Z,33.21
2023-12-21T23:55:08.628Z,33.50
2023-12-21T23:57:56.823Z,33.91
